Terminal Aerodrome Forecast
Issued by NWS Albuquerque, NM

Home | Current Version | Previous Version | Text Only | Print | Product List | Glossary On
Versions: 1 2 3 4 5 6 7 8 9 10 11 12 13 14 15 16
497
FTUS45 KABQ 310203 AAB
TAFABQ
TAF AMD
KABQ 310203Z 3102/3124 22011KT P6SM VCTS SCT090CB BKN150
      TEMPO 3102/3104 VRB15G35KT -TSRA BKN060CB
     FM310400 09010G18KT P6SM VCSH SCT090 BKN150
     FM310600 15007KT P6SM BKN120
     FM311900 23008KT P6SM FEW090
     FM312300 22010KT P6SM VCSH SCT090 BKN150=

USA.gov is the U.S. government's official web portal to all federal, state and local government web resources and services.